createdAt,value
2017-05-05T00:01:31.517Z,84.40
2017-05-05T00:04:00.140Z,83.80
2017-05-05T00:06:28.359Z,83.80
2017-05-05T00:08:56.602Z,83.40
2017-05-05T00:11:24.814Z,82.80
2017-05-05T00:13:53.425Z,82.70
2017-05-05T00:16:21.685Z,82.70
2017-05-05T00:18:49.900Z,82.50
2017-05-05T00:21:18.113Z,82.00
2017-05-05T00:23:46.855Z,81.60
2017-05-05T00:26:15.068Z,81.60
2017-05-05T00:28:43.285Z,81.30
2017-05-05T00:31:11.688Z,81.50
2017-05-05T00:33:39.914Z,80.80
2017-05-05T00:36:08.533Z,80.10
2017-05-05T00:38:36.921Z,80.10
2017-05-05T00:41:05.137Z,80.50
2017-05-05T00:43:33.757Z,79.20
2017-05-05T00:46:01.997Z,79.30
2017-05-05T00:48:30.600Z,79.70
2017-05-05T00:50:58.808Z,79.70
2017-05-05T00:53:27.048Z,79.30
2017-05-05T00:55:55.257Z,79.40
2017-05-05T00:58:23.474Z,79.20
2017-05-05T01:01:01.122Z,79.50
2017-05-05T01:03:29.367Z,79.50
2017-05-05T01:05:57.606Z,79.10
2017-05-05T01:08:26.392Z,79.60
2017-05-05T01:10:54.622Z,79.60
2017-05-05T01:13:22.862Z,79.90
2017-05-05T01:15:51.278Z,79.20
2017-05-05T01:18:19.516Z,79.70
2017-05-05T01:20:47.761Z,80.20
2017-05-05T01:23:16.409Z,80.50
2017-05-05T01:25:44.654Z,80.50
2017-05-05T01:28:13.131Z,80.70
2017-05-05T01:30:41.789Z,81.10
2017-05-05T01:33:10.426Z,82.10
2017-05-05T01:35:38.669Z,82.10
2017-05-05T01:38:06.938Z,81.80
2017-05-05T01:40:35.175Z,82.10
2017-05-05T01:43:03.415Z,83.50
2017-05-05T01:45:31.828Z,83.60
2017-05-05T01:48:00.070Z,84.40
2017-05-05T01:50:28.314Z,84.60
2017-05-05T01:52:56.586Z,84.70
2017-05-05T01:55:24.829Z,85.00
2017-05-05T01:57:53.073Z,85.20
2017-05-05T02:00:21.424Z,85.10
2017-05-05T02:02:49.665Z,85.40
2017-05-05T02:05:18.298Z,85.80
2017-05-05T02:07:46.577Z,85.80
2017-05-05T02:10:14.854Z,85.70
2017-05-05T02:12:43.094Z,85.80
2017-05-05T02:15:11.370Z,86.20
2017-05-05T02:17:39.609Z,86.60
2017-05-05T02:20:08.216Z,86.80
2017-05-05T02:22:36.455Z,86.80
2017-05-05T02:25:05.064Z,87.10
2017-05-05T02:27:33.284Z,87.10
2017-05-05T02:30:01.524Z,87.10
2017-05-05T02:32:29.737Z,87.00
2017-05-05T02:34:57.954Z,86.90
2017-05-05T02:37:26.201Z,87.10
2017-05-05T02:39:54.816Z,87.00
2017-05-05T02:42:23.029Z,87.00
2017-05-05T02:44:51.281Z,87.20
2017-05-05T02:47:19.500Z,87.60
2017-05-05T02:49:47.712Z,87.30
2017-05-05T02:52:15.947Z,87.10
2017-05-05T02:54:44.560Z,87.70
2017-05-05T02:57:12.772Z,87.70
2017-05-05T02:59:41.016Z,87.60
2017-05-05T03:02:09.308Z,87.80
2017-05-05T03:04:37.526Z,87.80
2017-05-05T03:07:06.307Z,87.40
2017-05-05T03:09:34.517Z,87.40
2017-05-05T03:12:02.728Z,87.90
2017-05-05T03:14:31.321Z,87.90
2017-05-05T03:16:59.546Z,87.80
2017-05-05T03:19:27.758Z,88.00
2017-05-05T03:21:56.141Z,88.00
2017-05-05T03:24:24.348Z,88.00
2017-05-05T03:26:52.952Z,87.90
2017-05-05T03:29:21.464Z,87.90
2017-05-05T03:31:49.681Z,87.60
2017-05-05T03:34:18.287Z,88.10
2017-05-05T03:36:46.525Z,88.10
2017-05-05T03:39:15.128Z,88.10
2017-05-05T03:41:43.737Z,88.50
2017-05-05T03:44:11.977Z,88.50
2017-05-05T03:46:40.586Z,88.10
2017-05-05T03:49:08.801Z,88.00
2017-05-05T03:51:37.133Z,88.20
2017-05-05T03:54:05.344Z,87.90
2017-05-05T03:56:33.565Z,87.80
2017-05-05T03:59:01.819Z,88.10
2017-05-05T04:01:30.428Z,88.40
2017-05-05T04:03:58.801Z,88.40
2017-05-05T04:06:27.061Z,87.90
2017-05-05T04:08:55.656Z,88.10
2017-05-05T04:11:23.863Z,88.10
2017-05-05T04:13:52.107Z,88.00
2017-05-05T04:16:20.985Z,87.90
2017-05-05T04:18:49.192Z,87.80
2017-05-05T04:21:17.681Z,88.10
2017-05-05T04:23:45.884Z,88.20
2017-05-05T04:26:14.096Z,88.10
2017-05-05T04:28:42.739Z,88.10
2017-05-05T04:31:10.949Z,88.20
2017-05-05T04:33:39.165Z,88.60
2017-05-05T04:36:07.560Z,88.50
2017-05-05T04:38:35.776Z,88.30
2017-05-05T04:41:03.983Z,88.20
2017-05-05T04:43:32.238Z,88.20
2017-05-05T04:46:00.448Z,88.20
2017-05-05T04:48:28.657Z,88.30
2017-05-05T04:50:56.880Z,88.20
2017-05-05T04:53:25.100Z,88.20
2017-05-05T04:55:53.315Z,87.90
2017-05-05T04:58:21.714Z,88.10
2017-05-05T05:00:49.920Z,88.00
2017-05-05T05:03:18.136Z,87.60
2017-05-05T05:05:46.470Z,88.20
2017-05-05T05:08:14.685Z,88.10
2017-05-05T05:10:42.894Z,87.90
2017-05-05T05:13:11.476Z,87.70
2017-05-05T05:15:40.092Z,88.10
2017-05-05T05:18:08.308Z,88.10
2017-05-05T05:20:36.641Z,87.80
2017-05-05T05:23:04.856Z,87.50
2017-05-05T05:25:33.073Z,87.80
2017-05-05T05:28:01.552Z,87.60
2017-05-05T05:30:29.760Z,87.40
2017-05-05T05:32:57.985Z,87.70
2017-05-05T05:35:26.799Z,87.70
2017-05-05T05:37:55.017Z,87.70
2017-05-05T05:40:23.247Z,87.60
2017-05-05T05:42:51.474Z,87.80
2017-05-05T05:45:19.685Z,87.80
2017-05-05T05:47:47.905Z,87.80
2017-05-05T05:50:16.123Z,87.50
2017-05-05T05:52:44.337Z,87.30
2017-05-05T05:55:12.549Z,87.40
2017-05-05T05:57:41.345Z,87.40
2017-05-05T06:00:09.981Z,87.60
2017-05-05T06:02:38.187Z,87.60
2017-05-05T06:05:06.800Z,87.40
2017-05-05T06:07:35.298Z,87.40
2017-05-05T06:10:03.505Z,87.10
2017-05-05T06:12:31.720Z,87.10
2017-05-05T06:14:59.973Z,87.10
2017-05-05T06:17:28.588Z,87.20
2017-05-05T06:19:56.829Z,87.20
2017-05-05T06:22:25.638Z,87.10
2017-05-05T06:24:53.852Z,87.10
2017-05-05T06:27:22.066Z,86.90
2017-05-05T06:29:50.843Z,86.80
2017-05-05T06:32:19.280Z,86.80
2017-05-05T06:34:47.490Z,86.70
2017-05-05T06:37:15.821Z,86.70
2017-05-05T06:39:44.043Z,86.50
2017-05-05T06:42:12.262Z,86.90
2017-05-05T06:44:40.505Z,86.60
2017-05-05T06:47:09.127Z,86.90
2017-05-05T06:49:37.336Z,86.90
2017-05-05T06:52:05.589Z,86.50
2017-05-05T06:54:33.809Z,86.50
2017-05-05T06:57:02.413Z,86.60
2017-05-05T06:59:30.735Z,86.60
2017-05-05T07:01:58.961Z,86.80
2017-05-05T07:04:27.520Z,86.40
2017-05-05T07:06:55.744Z,86.40
2017-05-05T07:09:23.945Z,86.90
2017-05-05T07:11:52.171Z,86.60
2017-05-05T07:14:20.412Z,86.90
2017-05-05T07:16:49.016Z,87.30
2017-05-05T07:19:17.234Z,87.30
2017-05-05T07:21:45.703Z,86.80
2017-05-05T07:24:13.917Z,87.30
2017-05-05T07:26:42.532Z,87.40
2017-05-05T07:29:10.791Z,87.40
2017-05-05T07:31:39.000Z,87.10
2017-05-05T07:34:07.211Z,87.00
2017-05-05T07:36:35.835Z,87.30
2017-05-05T07:39:04.067Z,87.30
2017-05-05T07:41:32.668Z,86.50
2017-05-05T07:44:01.069Z,86.50
2017-05-05T07:46:29.288Z,86.70
2017-05-05T07:48:57.496Z,86.90
2017-05-05T07:51:25.741Z,87.30
2017-05-05T07:53:54.364Z,87.50
2017-05-05T07:56:22.579Z,87.50
2017-05-05T07:58:51.090Z,87.10
2017-05-05T08:01:19.704Z,87.50
2017-05-05T08:03:47.942Z,87.50
2017-05-05T08:06:16.576Z,87.30
2017-05-05T08:08:44.788Z,87.30
2017-05-05T08:11:13.391Z,87.70
2017-05-05T08:13:41.639Z,87.70
2017-05-05T08:16:09.868Z,87.70
2017-05-05T08:18:38.082Z,87.40
2017-05-05T08:21:06.325Z,87.60
2017-05-05T08:23:34.536Z,87.90
2017-05-05T08:26:03.150Z,87.70
2017-05-05T08:28:31.564Z,87.80
2017-05-05T08:30:59.771Z,87.50
2017-05-05T08:33:28.380Z,87.40
2017-05-05T08:35:56.708Z,87.40
2017-05-05T08:38:24.947Z,87.40
2017-05-05T08:40:53.152Z,87.50
2017-05-05T08:43:22.135Z,87.80
2017-05-05T08:45:50.348Z,87.90
2017-05-05T08:48:18.960Z,87.80
2017-05-05T08:50:47.453Z,87.80
2017-05-05T08:53:15.668Z,88.00
2017-05-05T08:55:44.288Z,88.10
2017-05-05T08:58:12.518Z,88.10
2017-05-05T09:00:40.728Z,87.70
2017-05-05T09:03:08.937Z,87.80
2017-05-05T09:05:37.588Z,87.40
2017-05-05T09:08:05.826Z,87.30
2017-05-05T09:10:34.029Z,87.80
2017-05-05T09:13:02.277Z,87.90
2017-05-05T09:15:30.880Z,88.00
2017-05-05T09:17:59.090Z,88.00
2017-05-05T09:20:27.574Z,87.90
2017-05-05T09:22:55.787Z,87.70
2017-05-05T09:25:24.383Z,88.00
2017-05-05T09:27:52.766Z,88.00
2017-05-05T09:30:20.972Z,88.10
2017-05-05T09:32:49.601Z,88.00
2017-05-05T09:35:18.242Z,87.60
2017-05-05T09:37:46.455Z,87.60
2017-05-05T09:40:15.063Z,87.50
2017-05-05T09:42:43.329Z,87.50
2017-05-05T09:45:11.540Z,87.60
2017-05-05T09:47:39.832Z,87.70
2017-05-05T09:50:08.064Z,88.00
2017-05-05T09:52:36.278Z,87.60
2017-05-05T09:55:04.484Z,87.50
2017-05-05T09:57:33.271Z,87.50
2017-05-05T10:00:01.877Z,87.40
2017-05-05T10:02:30.308Z,87.40
2017-05-05T10:04:58.629Z,87.70
2017-05-05T10:07:26.862Z,87.80
2017-05-05T10:09:55.069Z,87.90
2017-05-05T10:12:23.313Z,87.70
2017-05-05T10:14:51.924Z,87.80
2017-05-05T10:17:20.132Z,87.80
2017-05-05T10:19:48.360Z,87.90
2017-05-05T10:22:16.577Z,87.90
2017-05-05T10:24:44.791Z,87.90
2017-05-05T10:27:13.979Z,87.80
2017-05-05T10:29:42.195Z,87.80
2017-05-05T10:32:10.397Z,87.70
2017-05-05T10:34:38.637Z,87.70
2017-05-05T10:37:06.864Z,88.00
2017-05-05T10:39:35.069Z,87.70
2017-05-05T10:42:03.285Z,87.30
2017-05-05T10:44:31.511Z,88.20
2017-05-05T10:47:00.308Z,88.00
2017-05-05T10:49:28.611Z,88.00
2017-05-05T10:51:56.818Z,87.00
2017-05-05T10:54:25.064Z,87.20
2017-05-05T10:56:53.643Z,87.10
2017-05-05T10:59:21.821Z,87.70
2017-05-05T11:01:50.053Z,87.10
2017-05-05T11:04:18.255Z,87.30
2017-05-05T11:06:46.468Z,87.40
2017-05-05T11:09:14.733Z,87.20
2017-05-05T11:11:42.949Z,87.40
2017-05-05T11:14:11.165Z,87.10
2017-05-05T11:16:39.553Z,87.40
2017-05-05T11:19:07.764Z,87.30
2017-05-05T11:21:36.386Z,87.40
2017-05-05T11:24:04.867Z,87.30
2017-05-05T11:26:33.084Z,87.40
2017-05-05T11:29:01.704Z,87.60
2017-05-05T11:31:30.197Z,87.60
2017-05-05T11:33:58.423Z,87.50
2017-05-05T11:36:27.029Z,87.60
2017-05-05T11:38:55.292Z,87.60
2017-05-05T11:41:23.900Z,87.10
2017-05-05T11:43:52.114Z,87.10
2017-05-05T11:46:20.610Z,88.00
2017-05-05T11:48:49.222Z,87.40
2017-05-05T11:51:17.443Z,87.40
2017-05-05T11:53:45.859Z,88.00
2017-05-05T11:56:14.069Z,87.40
2017-05-05T11:58:42.298Z,87.50
2017-05-05T12:01:10.951Z,87.60
2017-05-05T12:03:39.170Z,87.60
2017-05-05T12:06:07.394Z,87.50
2017-05-05T12:08:35.901Z,87.60
2017-05-05T12:11:04.736Z,87.40
2017-05-05T12:13:32.940Z,87.40
2017-05-05T12:16:01.188Z,87.80
2017-05-05T12:18:29.413Z,87.70
2017-05-05T12:20:58.034Z,87.30
2017-05-05T12:23:26.273Z,87.30
2017-05-05T12:25:54.507Z,87.20
2017-05-05T12:28:22.731Z,87.80
2017-05-05T12:30:51.141Z,88.20
2017-05-05T12:33:19.350Z,87.40
2017-05-05T12:35:47.560Z,87.50
2017-05-05T12:38:15.809Z,87.40
2017-05-05T12:40:44.441Z,87.90
2017-05-05T12:43:12.654Z,87.90
2017-05-05T12:45:41.539Z,88.20
2017-05-05T12:48:09.755Z,88.20
2017-05-05T12:50:38.330Z,87.90
2017-05-05T12:53:07.242Z,87.90
2017-05-05T12:55:35.424Z,87.90
2017-05-05T12:58:03.634Z,87.60
2017-05-05T13:00:32.516Z,87.20
2017-05-05T13:03:00.736Z,87.30
2017-05-05T13:05:28.958Z,87.80
2017-05-05T13:07:57.453Z,87.80
2017-05-05T13:10:26.062Z,87.60
2017-05-05T13:12:54.271Z,87.60
2017-05-05T13:15:22.516Z,87.30
2017-05-05T13:17:50.783Z,87.10
2017-05-05T13:20:19.355Z,87.40
2017-05-05T13:22:47.593Z,87.40
2017-05-05T13:25:15.820Z,87.40
2017-05-05T13:27:44.039Z,87.80
2017-05-05T13:30:12.272Z,87.20
2017-05-05T13:32:40.490Z,87.50
2017-05-05T13:35:08.702Z,87.80
2017-05-05T13:37:36.949Z,87.50
2017-05-05T13:40:05.556Z,87.60
2017-05-05T13:42:33.792Z,87.60
2017-05-05T13:45:02.293Z,88.60
2017-05-05T13:47:30.890Z,87.30
2017-05-05T13:49:59.115Z,87.30
2017-05-05T13:52:27.347Z,87.40
2017-05-05T13:54:55.745Z,87.40
2017-05-05T13:57:23.946Z,87.70
2017-05-05T13:59:52.183Z,87.60
2017-05-05T14:02:20.744Z,87.70
2017-05-05T14:04:48.979Z,88.00
2017-05-05T14:07:17.827Z,87.70
2017-05-05T14:09:46.034Z,87.80
2017-05-05T14:12:15.132Z,87.70
2017-05-05T14:14:43.372Z,87.40
2017-05-05T14:17:11.581Z,87.80
2017-05-05T14:19:39.792Z,87.90
2017-05-05T14:22:08.036Z,87.90
2017-05-05T14:24:36.656Z,87.70
2017-05-05T14:27:04.858Z,87.70
2017-05-05T14:29:33.250Z,87.90
2017-05-05T14:32:01.459Z,87.80
2017-05-05T14:34:29.886Z,87.80
2017-05-05T14:36:58.255Z,88.00
2017-05-05T14:39:27.108Z,88.10
2017-05-05T14:41:55.327Z,88.20
2017-05-05T14:44:24.904Z,87.90
2017-05-05T14:46:53.134Z,87.70
2017-05-05T14:49:21.761Z,87.30
2017-05-05T14:51:50.137Z,87.30
2017-05-05T14:54:18.378Z,87.60
2017-05-05T14:56:46.985Z,87.60
2017-05-05T14:59:15.558Z,87.60
2017-05-05T15:01:43.761Z,87.70
2017-05-05T15:04:11.981Z,87.70
2017-05-05T15:06:40.424Z,87.50
2017-05-05T15:09:08.645Z,87.50
2017-05-05T15:11:36.870Z,87.10
2017-05-05T15:14:05.266Z,87.30
2017-05-05T15:16:33.477Z,87.60
2017-05-05T15:19:01.706Z,87.60
2017-05-05T15:21:29.962Z,87.50
2017-05-05T15:23:58.172Z,87.30
2017-05-05T15:26:26.792Z,87.70
2017-05-05T15:28:55.298Z,87.70
2017-05-05T15:31:24.042Z,87.60
2017-05-05T15:33:52.257Z,87.60
2017-05-05T15:36:20.765Z,87.10
2017-05-05T15:38:49.391Z,87.30
2017-05-05T15:41:17.618Z,87.30
2017-05-05T15:43:46.507Z,86.90
2017-05-05T15:46:15.141Z,87.40
2017-05-05T15:48:43.362Z,87.40
2017-05-05T15:51:11.852Z,87.50
2017-05-05T15:53:40.474Z,87.00
2017-05-05T15:56:08.690Z,87.00
2017-05-05T15:58:37.244Z,87.00
2017-05-05T16:01:05.471Z,86.90
2017-05-05T16:03:33.712Z,87.00
2017-05-05T16:06:02.169Z,87.00
2017-05-05T16:08:30.374Z,87.10
2017-05-05T16:10:58.588Z,86.90
2017-05-05T16:13:26.830Z,87.10
2017-05-05T16:15:56.560Z,87.30
2017-05-05T16:18:24.769Z,87.30
2017-05-05T16:20:53.088Z,86.90
2017-05-05T16:23:21.700Z,86.80
2017-05-05T16:25:50.450Z,86.80
2017-05-05T16:28:18.683Z,86.50
2017-05-05T16:30:46.899Z,86.90
2017-05-05T16:33:15.513Z,87.10
2017-05-05T16:35:43.770Z,87.10
2017-05-05T16:38:12.376Z,86.90
2017-05-05T16:40:40.599Z,86.90
2017-05-05T16:43:08.948Z,86.50
2017-05-05T16:45:37.169Z,86.60
2017-05-05T16:48:05.788Z,86.60
2017-05-05T16:50:34.131Z,86.60
2017-05-05T16:53:03.531Z,86.70
2017-05-05T16:55:31.744Z,86.70
2017-05-05T16:58:00.006Z,86.60
2017-05-05T17:00:28.235Z,86.70
2017-05-05T17:02:57.306Z,86.90
2017-05-05T17:05:25.720Z,87.10
2017-05-05T17:07:54.336Z,86.90
2017-05-05T17:10:22.557Z,86.90
2017-05-05T17:12:51.452Z,86.80
2017-05-05T17:15:19.677Z,86.80
2017-05-05T17:17:48.118Z,86.80
2017-05-05T17:20:16.529Z,87.00
2017-05-05T17:22:44.763Z,86.70
2017-05-05T17:25:12.982Z,86.70
2017-05-05T17:27:41.235Z,87.20
2017-05-05T17:30:09.702Z,87.00
2017-05-05T17:32:37.918Z,87.40
2017-05-05T17:35:06.156Z,86.90
2017-05-05T17:37:34.397Z,87.40
2017-05-05T17:40:04.137Z,87.00
2017-05-05T17:42:33.839Z,87.10
2017-05-05T17:45:02.068Z,87.10
2017-05-05T17:47:30.301Z,87.30
2017-05-05T17:49:58.574Z,87.20
2017-05-05T17:52:27.778Z,87.10
2017-05-05T17:54:56.019Z,87.40
2017-05-05T17:57:24.680Z,87.70
2017-05-05T17:59:53.324Z,87.40
2017-05-05T18:02:21.540Z,87.40
2017-05-05T18:04:50.190Z,87.50
2017-05-05T18:07:18.410Z,87.50
2017-05-05T18:09:47.021Z,87.40
2017-05-05T18:12:15.379Z,87.40
2017-05-05T18:14:43.612Z,87.80
2017-05-05T18:17:11.842Z,87.40
2017-05-05T18:19:40.107Z,87.40
2017-05-05T18:22:08.343Z,87.50
2017-05-05T18:24:36.576Z,87.20
2017-05-05T18:27:05.098Z,87.40
2017-05-05T18:29:33.678Z,87.60
2017-05-05T18:32:01.882Z,87.70
2017-05-05T18:34:30.140Z,88.20
2017-05-05T18:36:58.775Z,87.90
2017-05-05T18:39:27.007Z,87.90
2017-05-05T18:41:55.831Z,87.70
2017-05-05T18:44:24.059Z,87.80
2017-05-05T18:46:52.682Z,87.80
2017-05-05T18:49:21.084Z,87.80
2017-05-05T18:51:49.545Z,87.80
2017-05-05T18:54:17.774Z,87.50
2017-05-05T18:56:46.701Z,88.00
2017-05-05T18:59:14.916Z,88.00
2017-05-05T19:01:43.618Z,87.80
2017-05-05T19:04:12.434Z,87.90
2017-05-05T19:06:41.177Z,87.90
2017-05-05T19:09:09.788Z,87.90
2017-05-05T19:11:38.637Z,87.90
2017-05-05T19:14:06.916Z,88.00
2017-05-05T19:16:35.154Z,88.00
2017-05-05T19:19:03.409Z,88.00
2017-05-05T19:21:31.629Z,88.00
2017-05-05T19:23:59.844Z,88.00
2017-05-05T19:26:28.624Z,88.00
2017-05-05T19:28:56.816Z,88.10
2017-05-05T19:31:25.259Z,88.10
2017-05-05T19:33:53.885Z,88.10
2017-05-05T19:36:22.465Z,88.10
2017-05-05T19:38:50.689Z,88.50
2017-05-05T19:41:19.476Z,88.80
2017-05-05T19:43:48.108Z,88.60
2017-05-05T19:46:16.333Z,88.60
2017-05-05T19:48:44.595Z,88.70
2017-05-05T19:51:13.467Z,89.00
2017-05-05T19:53:41.696Z,88.70
2017-05-05T19:56:10.195Z,88.90
2017-05-05T19:58:38.410Z,88.70
2017-05-05T20:01:06.639Z,88.70
2017-05-05T20:03:34.884Z,88.70
2017-05-05T20:06:03.343Z,88.70
2017-05-05T20:08:31.952Z,88.90
2017-05-05T20:11:00.292Z,89.00
2017-05-05T20:13:28.531Z,89.00
2017-05-05T20:15:56.746Z,88.90
2017-05-05T20:18:25.828Z,88.80
2017-05-05T20:20:54.057Z,88.80
2017-05-05T20:23:22.278Z,88.70
2017-05-05T20:25:50.517Z,88.70
2017-05-05T20:28:18.748Z,89.00
2017-05-05T20:30:47.361Z,89.10
2017-05-05T20:33:15.753Z,89.10
2017-05-05T20:35:43.985Z,89.20
2017-05-05T20:38:12.215Z,89.10
2017-05-05T20:40:40.464Z,89.10
2017-05-05T20:43:08.705Z,89.20
2017-05-05T20:45:37.330Z,89.30
2017-05-05T20:48:05.577Z,89.30
2017-05-05T20:50:33.809Z,88.90
2017-05-05T20:53:02.026Z,88.70
2017-05-05T20:55:30.384Z,88.70
2017-05-05T20:57:58.627Z,89.00
2017-05-05T21:00:26.855Z,89.30
2017-05-05T21:02:55.119Z,89.00
2017-05-05T21:05:23.347Z,89.10
2017-05-05T21:07:51.571Z,89.20
2017-05-05T21:10:19.973Z,89.10
2017-05-05T21:12:48.199Z,88.90
2017-05-05T21:15:16.817Z,89.00
2017-05-05T21:17:45.442Z,88.90
2017-05-05T21:20:13.674Z,89.10
2017-05-05T21:22:41.884Z,88.30
2017-05-05T21:25:10.432Z,89.30
2017-05-05T21:27:38.664Z,89.80
2017-05-05T21:30:07.271Z,89.50
2017-05-05T21:32:35.777Z,89.50
2017-05-05T21:35:03.989Z,89.80
2017-05-05T21:37:32.861Z,89.80
2017-05-05T21:40:01.372Z,89.70
2017-05-05T21:42:30.306Z,90.60
2017-05-05T21:44:58.516Z,90.60
2017-05-05T21:47:27.173Z,90.40
2017-05-05T21:49:55.389Z,90.40
2017-05-05T21:52:23.623Z,90.20
2017-05-05T21:54:51.864Z,89.90
2017-05-05T21:57:20.083Z,90.30
2017-05-05T21:59:48.820Z,90.10
2017-05-05T22:02:17.133Z,90.10
2017-05-05T22:04:45.335Z,90.20
2017-05-05T22:07:14.242Z,90.90
2017-05-05T22:09:42.472Z,90.90
2017-05-05T22:12:10.704Z,90.50
2017-05-05T22:14:39.192Z,90.10
2017-05-05T22:17:07.413Z,90.10
2017-05-05T22:19:36.033Z,90.40
2017-05-05T22:22:04.359Z,90.40
2017-05-05T22:24:32.573Z,90.50
2017-05-05T22:27:00.789Z,90.70
2017-05-05T22:29:29.307Z,90.90
2017-05-05T22:31:57.921Z,90.70
2017-05-05T22:34:26.162Z,90.80
2017-05-05T22:36:54.907Z,90.00
2017-05-05T22:39:23.140Z,90.00
2017-05-05T22:41:51.357Z,90.00
2017-05-05T22:44:19.606Z,90.10
2017-05-05T22:46:47.825Z,90.20
2017-05-05T22:49:16.444Z,90.70
2017-05-05T22:51:44.781Z,90.70
2017-05-05T22:54:13.397Z,90.50
2017-05-05T22:56:41.614Z,90.50
2017-05-05T22:59:09.868Z,90.20
2017-05-05T23:01:38.083Z,90.30
2017-05-05T23:04:06.696Z,90.70
2017-05-05T23:06:34.950Z,90.70
2017-05-05T23:09:03.565Z,91.00
2017-05-05T23:11:31.782Z,91.00
2017-05-05T23:14:00.187Z,90.40
2017-05-05T23:16:28.802Z,90.70
2017-05-05T23:18:57.035Z,90.70
2017-05-05T23:21:25.706Z,90.00
2017-05-05T23:23:53.937Z,90.00
2017-05-05T23:26:22.157Z,90.30
2017-05-05T23:28:50.789Z,89.90
2017-05-05T23:31:19.013Z,89.90
2017-05-05T23:33:47.633Z,90.50
2017-05-05T23:36:16.027Z,90.40
2017-05-05T23:38:44.245Z,90.60
2017-05-05T23:41:12.471Z,90.40
2017-05-05T23:43:40.866Z,90.40
2017-05-05T23:46:09.077Z,90.20
2017-05-05T23:48:37.699Z,90.00
2017-05-05T23:51:06.104Z,90.00
2017-05-05T23:53:34.318Z,90.10
2017-05-05T23:56:02.932Z,89.70
2017-05-05T23:58:31.185Z,89.70
